Time;durP1;ratioP1;P1;durP2;ratioP2;P2;SDS_P1;SDS_P2;PMS_P1;PMS_P2;Temp;Humidity;BMP_temperature;BMP_pressure;BME280_temperature;BME280_humidity;BME280_pressure;Samples;Min_cycle;Max_cycle;Signal;HPM_P1;HPM_P2
2021/01/04 00:00:48;;;;;;;50.50;25.20;;;11.30;99.90;;;;;;5059404;28;20040;-69
2021/01/04 00:03:40;;;;;;;46.13;24.85;;;11.20;99.90;;;;;;5050841;28;20040;-69
2021/01/04 00:06:40;;;;;;;52.65;26.52;;;11.20;99.90;;;;;;5064890;28;20037;-69
2021/01/04 00:09:44;;;;;;;52.03;26.38;;;11.20;99.90;;;;;;5070787;28;20024;-69
2021/01/04 00:12:35;;;;;;;54.45;25.73;;;11.20;99.90;;;;;;5042493;28;20040;-68
2021/01/04 00:15:07;;;;;;;46.97;25.83;;;11.10;99.90;;;;;;5065860;28;20044;-68
2021/01/04 00:18:06;;;;;;;64.63;27.30;;;11.10;99.90;;;;;;5050695;28;20037;-68
2021/01/04 00:20:50;;;;;;;49.17;26.27;;;11.10;99.90;;;;;;5049759;28;20052;-69
2021/01/04 00:23:29;;;;;;;59.33;27.23;;;11.00;99.90;;;;;;5051871;28;20036;-68
2021/01/04 00:26:10;;;;;;;45.13;24.33;;;11.00;99.90;;;;;;5051214;28;20396;-67
2021/01/04 00:28:38;;;;;;;48.78;24.35;;;11.00;99.90;;;;;;5058282;28;20033;-69
2021/01/04 00:31:08;;;;;;;56.33;28.17;;;11.00;99.90;;;;;;5070396;28;20025;-69
2021/01/04 00:33:50;;;;;;;65.38;29.67;;;10.90;99.90;;;;;;5054477;28;20025;-68
2021/01/04 00:36:29;;;;;;;54.47;28.95;;;10.90;99.90;;;;;;5053974;28;20056;-67
2021/01/04 00:39:07;;;;;;;41.40;21.77;;;11.00;99.90;;;;;;5050399;28;20037;-67
2021/01/04 00:41:55;;;;;;;30.35;16.83;;;10.90;99.90;;;;;;5053758;28;20041;-68
2021/01/04 00:44:46;;;;;;;26.58;12.10;;;10.90;99.90;;;;;;5053853;28;20025;-69
2021/01/04 00:47:51;;;;;;;31.65;12.85;;;10.80;99.90;;;;;;5034074;28;20464;-68
2021/01/04 00:50:21;;;;;;;34.88;16.95;;;10.90;99.90;;;;;;5012128;28;20437;-68
2021/01/04 00:53:07;;;;;;;44.47;20.58;;;10.90;99.90;;;;;;5051551;28;20033;-68
2021/01/04 00:55:55;;;;;;;52.72;23.85;;;10.80;99.90;;;;;;5039707;28;20061;-68
2021/01/04 00:58:36;;;;;;;42.88;22.50;;;10.70;99.90;;;;;;5037209;28;20041;-70
2021/01/04 01:01:07;;;;;;;43.38;19.33;;;10.60;99.90;;;;;;5036874;28;20063;-67
2021/01/04 01:03:57;;;;;;;40.78;18.63;;;10.50;99.90;;;;;;5051526;28;20140;-70
2021/01/04 01:06:53;;;;;;;33.50;13.43;;;10.50;99.90;;;;;;5042714;28;20033;-70
2021/01/04 01:09:19;;;;;;;37.92;14.75;;;10.50;99.90;;;;;;5032048;28;20045;-69
2021/01/04 01:12:19;;;;;;;29.75;11.48;;;10.50;99.90;;;;;;5040460;28;20033;-69
2021/01/04 01:14:57;;;;;;;24.50;9.13;;;10.50;99.90;;;;;;5035671;28;20040;-71
2021/01/04 01:18:01;;;;;;;18.35;9.40;;;10.40;99.90;;;;;;5034135;28;20046;-69
2021/01/04 01:20:29;;;;;;;19.25;7.38;;;10.40;99.90;;;;;;5045430;28;20048;-69
2021/01/04 01:22:57;;;;;;;17.13;5.32;;;10.40;99.90;;;;;;5051297;28;20032;-68
2021/01/04 01:25:32;;;;;;;12.73;5.00;;;10.40;99.90;;;;;;5037782;28;20041;-69
2021/01/04 01:28:45;;;;;;;14.45;4.85;;;10.30;99.90;;;;;;5051258;28;20059;-69
2021/01/04 01:31:45;;;;;;;15.82;5.32;;;10.30;99.90;;;;;;5052900;28;20024;-69
2021/01/04 01:34:43;;;;;;;17.85;5.90;;;10.30;99.90;;;;;;5067091;28;20025;-70
2021/01/04 01:37:48;;;;;;;22.10;5.57;;;10.10;99.90;;;;;;5067722;28;20055;-69
2021/01/04 01:40:27;;;;;;;23.35;7.32;;;10.10;99.90;;;;;;5063140;28;20040;-70
2021/01/04 01:43:24;;;;;;;21.63;9.18;;;10.10;99.90;;;;;;5062859;28;20463;-69
2021/01/04 01:45:57;;;;;;;21.27;6.40;;;10.10;99.90;;;;;;5054753;28;20043;-69
2021/01/04 01:48:38;;;;;;;13.85;5.65;;;10.10;99.90;;;;;;5054200;28;20055;-69
2021/01/04 01:51:28;;;;;;;9.50;4.00;;;10.10;99.90;;;;;;5059217;28;20021;-72
2021/01/04 01:54:16;;;;;;;12.40;4.40;;;10.10;99.90;;;;;;5043688;28;20049;-70
2021/01/04 01:56:49;;;;;;;14.38;6.13;;;10.10;99.90;;;;;;5052979;28;20037;-71
2021/01/04 01:59:25;;;;;;;16.30;4.28;;;10.10;99.90;;;;;;5053920;28;20060;-69
2021/01/04 02:01:57;;;;;;;10.48;3.47;;;10.10;99.90;;;;;;5052274;28;20511;-69
2021/01/04 02:04:50;;;;;;;8.85;3.40;;;10.10;99.90;;;;;;5053520;28;20029;-69
2021/01/04 02:07:56;;;;;;;10.73;4.43;;;10.10;99.90;;;;;;5009797;28;20037;-69
2021/01/04 02:10:33;;;;;;;21.75;4.38;;;10.10;99.90;;;;;;5011930;28;20386;-69
2021/01/04 02:13:09;;;;;;;15.30;4.38;;;10.00;99.90;;;;;;5015493;28;20129;-69
2021/01/04 02:15:51;;;;;;;14.95;4.97;;;10.00;99.90;;;;;;5029985;28;20390;-69
2021/01/04 02:18:48;;;;;;;13.52;4.40;;;10.00;99.90;;;;;;5021554;28;20579;-69
2021/01/04 02:21:59;;;;;;;11.05;4.45;;;10.00;99.90;;;;;;5027917;28;20461;-69
2021/01/04 02:24:29;;;;;;;13.52;3.70;;;10.00;99.90;;;;;;5009079;28;20034;-70
2021/01/04 02:27:10;;;;;;;15.13;3.83;;;9.90;99.90;;;;;;5020820;28;20049;-68
2021/01/04 02:29:37;;;;;;;14.40;3.70;;;9.90;99.90;;;;;;5010646;28;20041;-69
2021/01/04 02:32:07;;;;;;;20.13;4.15;;;9.90;99.90;;;;;;5001979;28;20049;-69
2021/01/04 02:34:43;;;;;;;21.92;3.95;;;9.90;99.90;;;;;;5028215;28;20033;-69
2021/01/04 02:37:14;;;;;;;20.83;4.30;;;9.90;99.90;;;;;;5029513;28;20061;-67
2021/01/04 02:39:54;;;;;;;17.27;5.83;;;10.00;99.90;;;;;;5023750;28;20034;-70
2021/01/04 02:42:35;;;;;;;16.60;4.93;;;9.90;99.90;;;;;;5028339;28;20026;-69
2021/01/04 02:45:23;;;;;;;22.63;8.27;;;9.90;99.90;;;;;;5049616;28;20351;-68
2021/01/04 02:47:58;;;;;;;16.52;5.03;;;9.80;99.90;;;;;;5051811;28;20480;-69
2021/01/04 02:51:00;;;;;;;22.80;6.40;;;9.80;99.90;;;;;;5069438;28;20033;-69
2021/01/04 02:53:54;;;;;;;17.15;6.05;;;9.80;99.90;;;;;;5011478;28;20041;-69
2021/01/04 02:56:58;;;;;;;11.85;4.28;;;9.90;99.90;;;;;;5027908;28;20485;-69
2021/01/04 02:59:46;;;;;;;22.02;5.60;;;9.80;99.90;;;;;;5015642;28;20041;-68
2021/01/04 03:02:17;;;;;;;16.58;5.07;;;9.80;99.90;;;;;;5009694;28;20034;-69
2021/01/04 03:04:46;;;;;;;23.40;5.88;;;9.70;99.90;;;;;;5008264;28;20034;-69
2021/01/04 03:07:32;;;;;;;13.30;2.55;;;9.80;99.90;;;;;;5009583;28;20030;-69
2021/01/04 03:10:04;;;;;;;16.08;4.15;;;9.70;99.90;;;;;;5008453;28;20046;-68
2021/01/04 03:12:35;;;;;;;16.13;3.45;;;9.90;99.90;;;;;;5020308;28;20030;-68
2021/01/04 03:15:27;;;;;;;15.38;3.75;;;10.00;99.90;;;;;;5015483;28;20030;-68
2021/01/04 03:18:25;;;;;;;29.80;6.22;;;10.00;99.90;;;;;;5021959;28;20374;-68
2021/01/04 03:20:53;;;;;;;13.25;3.63;;;10.00;99.90;;;;;;5024819;28;20121;-68
2021/01/04 03:23:21;;;;;;;16.92;4.35;;;10.10;99.90;;;;;;5014020;28;20050;-68
2021/01/04 03:25:56;;;;;;;14.23;3.95;;;10.20;99.90;;;;;;5010390;28;20079;-69
2021/01/04 03:28:29;;;;;;;15.35;4.55;;;10.30;99.90;;;;;;5010680;28;20041;-68
2021/01/04 03:30:57;;;;;;;22.02;6.72;;;10.30;99.90;;;;;;5026890;28;20576;-68
2021/01/04 03:33:24;;;;;;;24.70;9.23;;;10.10;99.90;;;;;;5050877;28;20021;-67
2021/01/04 03:35:52;;;;;;;25.30;7.35;;;10.00;99.90;;;;;;5071155;28;20071;-69
2021/01/04 03:38:21;;;;;;;18.85;6.65;;;10.00;99.90;;;;;;5068532;28;20041;-68
2021/01/04 03:40:48;;;;;;;17.80;6.00;;;10.00;99.90;;;;;;5071170;28;20032;-69
2021/01/04 03:43:16;;;;;;;15.50;5.20;;;10.00;99.90;;;;;;5068826;28;20032;-69
2021/01/04 03:45:43;;;;;;;17.60;4.75;;;10.00;99.90;;;;;;5069946;28;20399;-68
2021/01/04 03:48:11;;;;;;;23.35;7.63;;;10.00;99.90;;;;;;5069211;28;20024;-68
2021/01/04 03:50:38;;;;;;;32.50;13.18;;;10.00;99.90;;;;;;5071126;28;20047;-70
2021/01/04 03:53:05;;;;;;;129.80;21.05;;;9.90;99.90;;;;;;5069438;28;20024;-69
2021/01/04 03:55:32;;;;;;;202.40;24.55;;;9.80;99.90;;;;;;5071147;28;20043;-69
2021/01/04 03:58:01;;;;;;;124.13;22.48;;;9.80;99.90;;;;;;5059390;28;20037;-70
2021/01/04 04:00:29;;;;;;;74.68;17.10;;;9.60;99.90;;;;;;5051692;28;20045;-70
2021/01/04 04:02:56;;;;;;;34.42;15.60;;;9.60;99.90;;;;;;5053351;28;20036;-70
2021/01/04 04:05:22;;;;;;;45.08;18.23;;;9.60;99.90;;;;;;5055495;28;20095;-70
2021/01/04 04:07:49;;;;;;;33.55;18.00;;;9.50;99.90;;;;;;5064571;28;20031;-70
2021/01/04 04:10:19;;;;;;;32.92;16.98;;;9.50;99.90;;;;;;5073965;28;20473;-70
2021/01/04 04:12:47;;;;;;;32.95;16.60;;;9.50;99.90;;;;;;5064039;28;20044;-70
2021/01/04 04:15:17;;;;;;;32.13;15.10;;;9.50;99.90;;;;;;5055633;28;20021;-69
2021/01/04 04:17:44;;;;;;;34.83;16.10;;;9.40;99.90;;;;;;5055516;28;20041;-69
2021/01/04 04:20:21;;;;;;;35.92;17.52;;;9.40;99.90;;;;;;5070687;28;20032;-68
2021/01/04 04:22:50;;;;;;;32.28;15.45;;;9.40;99.90;;;;;;5055522;28;20044;-68
2021/01/04 04:25:19;;;;;;;34.53;14.85;;;9.30;99.90;;;;;;5070216;28;20048;-69
2021/01/04 04:27:47;;;;;;;34.47;14.50;;;9.40;99.90;;;;;;5070737;28;20518;-69
2021/01/04 04:30:17;;;;;;;37.53;14.13;;;9.40;99.90;;;;;;5074372;28;20036;-69
2021/01/04 04:32:44;;;;;;;25.88;8.32;;;9.40;99.90;;;;;;5055609;28;20040;-69
2021/01/04 04:35:12;;;;;;;16.58;6.70;;;9.40;99.90;;;;;;5074523;28;20037;-69
2021/01/04 04:37:43;;;;;;;26.08;7.32;;;9.40;99.90;;;;;;5057992;28;20130;-68
2021/01/04 04:40:21;;;;;;;16.95;6.43;;;9.50;99.90;;;;;;5073854;28;20021;-69
2021/01/04 04:42:53;;;;;;;18.60;5.95;;;9.40;99.90;;;;;;5073818;28;20031;-69
2021/01/04 04:45:21;;;;;;;14.73;5.75;;;9.40;99.90;;;;;;5069375;28;20025;-69
2021/01/04 04:48:06;;;;;;;15.13;5.57;;;9.40;99.90;;;;;;5054885;28;20492;-69
2021/01/04 04:50:39;;;;;;;14.60;5.20;;;9.30;99.90;;;;;;5055278;28;20032;-69
2021/01/04 04:53:27;;;;;;;16.65;5.70;;;9.40;99.90;;;;;;5068373;28;20039;-69
2021/01/04 04:56:09;;;;;;;15.45;5.13;;;9.30;99.90;;;;;;5072244;28;20040;-69
2021/01/04 04:58:51;;;;;;;18.00;5.53;;;9.30;99.90;;;;;;5074014;28;20043;-68
2021/01/04 05:01:31;;;;;;;16.10;5.28;;;9.30;99.90;;;;;;5071825;28;20036;-70
2021/01/04 05:04:38;;;;;;;75.53;31.38;;;9.30;99.90;;;;;;5073002;28;20380;-70
2021/01/04 05:07:41;;;;;;;53.92;22.52;;;9.30;99.90;;;;;;5072289;28;20028;-70
2021/01/04 05:10:20;;;;;;;43.20;17.17;;;9.20;99.90;;;;;;5043526;28;20037;-69
2021/01/04 05:13:10;;;;;;;22.65;9.18;;;9.20;99.90;;;;;;5054650;28;20029;-70
2021/01/04 05:16:01;;;;;;;16.50;5.68;;;9.20;99.90;;;;;;5067553;28;20032;-69
2021/01/04 05:19:28;;;;;;;21.63;6.22;;;9.20;99.90;;;;;;5071245;28;20028;-71
2021/01/04 05:22:31;;;;;;;21.05;3.92;;;9.20;99.90;;;;;;5029203;28;20733;-69
2021/01/04 05:25:15;;;;;;;18.02;3.80;;;9.20;99.90;;;;;;5031546;28;20049;-69
2021/01/04 05:27:45;;;;;;;15.20;3.45;;;9.30;99.90;;;;;;5012703;28;20045;-69
2021/01/04 05:30:32;;;;;;;12.73;3.10;;;9.30;99.90;;;;;;5012045;28;20553;-70
2021/01/04 05:33:21;;;;;;;21.23;3.58;;;9.40;99.90;;;;;;5012389;28;20038;-70
2021/01/04 05:35:50;;;;;;;12.25;3.70;;;9.50;99.90;;;;;;5012399;28;20037;-70
2021/01/04 05:38:33;;;;;;;12.05;2.17;;;9.60;99.90;;;;;;5013808;28;20041;-69
2021/01/04 05:41:23;;;;;;;12.10;2.17;;;9.60;99.90;;;;;;5016977;28;20053;-69
2021/01/04 05:43:59;;;;;;;16.38;3.25;;;9.60;99.90;;;;;;5015539;28;20026;-69
2021/01/04 05:46:49;;;;;;;18.08;3.20;;;9.60;99.90;;;;;;5024003;28;20053;-69
2021/01/04 05:49:25;;;;;;;19.08;3.17;;;9.50;99.90;;;;;;5024062;28;20073;-69
2021/01/04 05:51:52;;;;;;;13.00;3.58;;;9.40;99.90;;;;;;5014409;28;20038;-69
2021/01/04 05:54:30;;;;;;;32.75;5.95;;;9.40;99.90;;;;;;5072031;28;20056;-68
2021/01/04 05:57:09;;;;;;;14.05;2.55;;;9.50;99.90;;;;;;5059890;28;20033;-68
2021/01/04 05:59:57;;;;;;;19.13;3.75;;;9.50;99.90;;;;;;5070537;28;20049;-68
2021/01/04 06:02:33;;;;;;;12.82;2.28;;;9.70;99.90;;;;;;5072719;28;20350;-68
2021/01/04 06:05:15;;;;;;;11.70;2.50;;;9.70;99.90;;;;;;5032312;28;20041;-69
2021/01/04 06:07:45;;;;;;;20.83;2.90;;;9.80;99.90;;;;;;5035238;28;20541;-68
2021/01/04 06:10:35;;;;;;;14.63;2.78;;;9.80;99.90;;;;;;5053581;28;20033;-68
2021/01/04 06:13:04;;;;;;;12.65;2.65;;;9.70;99.90;;;;;;5052152;28;20036;-68
2021/01/04 06:15:36;;;;;;;8.07;1.90;;;9.80;99.90;;;;;;5052620;28;20040;-68
2021/01/04 06:18:09;;;;;;;13.98;2.83;;;9.90;99.90;;;;;;5052428;28;20476;-68
2021/01/04 06:20:39;;;;;;;9.65;1.50;;;9.90;99.90;;;;;;5069907;28;20027;-70
2021/01/04 06:23:29;;;;;;;14.05;1.58;;;10.00;99.90;;;;;;5066320;28;20033;-70
2021/01/04 06:26:00;;;;;;;10.95;2.30;;;10.10;99.90;;;;;;5055821;28;20385;-70
2021/01/04 06:28:27;;;;;;;5.80;1.52;;;10.20;99.90;;;;;;5071968;28;20036;-71
2021/01/04 06:31:08;;;;;;;9.82;1.38;;;10.30;99.90;;;;;;5070674;28;20028;-70
2021/01/04 06:33:37;;;;;;;11.23;2.28;;;10.40;99.90;;;;;;5070975;28;20028;-70
2021/01/04 06:36:08;;;;;;;5.60;1.27;;;10.40;99.90;;;;;;5070302;28;20051;-70
2021/01/04 06:38:40;;;;;;;10.13;1.88;;;10.40;99.90;;;;;;5070133;28;20040;-70
2021/01/04 06:41:32;;;;;;;6.30;1.58;;;10.50;99.90;;;;;;5070087;28;20021;-69
2021/01/04 06:44:22;;;;;;;7.65;2.35;;;10.50;99.90;;;;;;5001185;28;20085;-69
2021/01/04 06:46:52;;;;;;;7.68;1.80;;;10.50;99.90;;;;;;4990678;28;20527;-69
2021/01/04 06:49:27;;;;;;;8.00;1.83;;;10.50;99.90;;;;;;4990385;28;20133;-67
2021/01/04 06:52:23;;;;;;;10.25;1.70;;;10.50;99.90;;;;;;4974962;28;20038;-67
2021/01/04 06:55:05;;;;;;;9.77;1.55;;;10.40;99.90;;;;;;4990119;28;20077;-69
2021/01/04 06:58:01;;;;;;;9.10;1.85;;;10.60;99.90;;;;;;4974080;28;20061;-68
2021/01/04 07:00:53;;;;;;;10.50;2.75;;;10.40;99.90;;;;;;4990161;28;20034;-69
2021/01/04 07:03:39;;;;;;;8.15;1.70;;;10.30;99.90;;;;;;4990195;28;20037;-68
2021/01/04 07:06:20;;;;;;;7.45;1.52;;;10.30;99.90;;;;;;4990235;28;20061;-69
2021/01/04 07:08:50;;;;;;;7.20;1.52;;;10.30;99.90;;;;;;4990123;28;20130;-68
2021/01/04 07:11:44;;;;;;;9.32;2.00;;;10.30;99.90;;;;;;4989738;28;20034;-70
2021/01/04 07:14:29;;;;;;;7.57;2.95;;;10.40;99.90;;;;;;4989902;28;20483;-69
2021/01/04 07:16:55;;;;;;;10.35;2.53;;;10.40;99.90;;;;;;4989912;28;20053;-68
2021/01/04 07:19:41;;;;;;;11.48;3.17;;;10.50;99.90;;;;;;4989920;28;20022;-68
2021/01/04 07:22:37;;;;;;;5.28;2.05;;;10.50;99.90;;;;;;5048493;28;20041;-69
2021/01/04 07:25:28;;;;;;;6.55;1.60;;;10.60;99.90;;;;;;5029202;28;20037;-68
2021/01/04 07:28:12;;;;;;;5.18;1.23;;;10.60;99.90;;;;;;5029289;28;20025;-68
2021/01/04 07:30:51;;;;;;;5.00;1.20;;;10.70;99.90;;;;;;5029134;28;20041;-70
2021/01/04 07:33:35;;;;;;;7.20;1.65;;;10.70;99.90;;;;;;5012958;28;20048;-69
2021/01/04 07:36:26;;;;;;;5.18;1.30;;;10.70;99.90;;;;;;5029350;28;20037;-69
2021/01/04 07:39:19;;;;;;;7.97;1.35;;;10.70;99.90;;;;;;5048584;28;20041;-69
2021/01/04 07:42:08;;;;;;;11.73;2.35;;;10.70;99.90;;;;;;5031762;28;20034;-69
2021/01/04 07:44:50;;;;;;;4.18;1.30;;;10.60;99.90;;;;;;5033271;28;20044;-69
2021/01/04 07:47:57;;;;;;;12.32;2.33;;;10.60;99.90;;;;;;5035555;28;20473;-69
2021/01/04 07:50:46;;;;;;;8.43;1.98;;;10.50;99.90;;;;;;5034905;28;20048;-70
2021/01/04 07:53:43;;;;;;;10.77;1.98;;;10.60;99.90;;;;;;4918999;29;20062;-69
2021/01/04 07:56:19;;;;;;;11.15;1.75;;;10.60;99.90;;;;;;4919482;29;20109;-69
2021/01/04 07:59:02;;;;;;;6.60;1.90;;;10.60;99.90;;;;;;4926474;29;20122;-69
2021/01/04 08:02:13;;;;;;;8.15;2.33;;;10.60;99.90;;;;;;4942868;28;20138;-68
2021/01/04 08:05:04;;;;;;;7.93;1.80;;;10.50;99.90;;;;;;4917956;29;20122;-69
2021/01/04 08:07:55;;;;;;;11.73;2.67;;;10.50;99.90;;;;;;4918974;29;20036;-68
2021/01/04 08:10:28;;;;;;;6.05;1.48;;;10.50;99.90;;;;;;4917429;29;20056;-68
2021/01/04 08:13:36;;;;;;;9.10;2.13;;;10.60;99.90;;;;;;4917439;29;20056;-67
2021/01/04 08:16:47;;;;;;;11.43;2.22;;;10.50;99.90;;;;;;4899626;29;20047;-68
2021/01/04 08:19:16;;;;;;;7.38;1.80;;;10.50;99.90;;;;;;4808412;29;20054;-69
2021/01/04 08:22:08;;;;;;;7.00;1.83;;;10.40;99.90;;;;;;4807672;29;20054;-68
2021/01/04 08:24:45;;;;;;;12.05;3.60;;;10.40;99.90;;;;;;4814423;29;20053;-68
2021/01/04 08:27:18;;;;;;;12.23;3.05;;;10.30;99.90;;;;;;4825944;29;20959;-67
2021/01/04 08:30:18;;;;;;;9.93;2.22;;;10.30;99.90;;;;;;4830408;29;20072;-68
2021/01/04 08:32:59;;;;;;;12.35;2.58;;;10.30;99.90;;;;;;4880791;29;20545;-68
2021/01/04 08:35:29;;;;;;;6.32;1.75;;;10.30;99.90;;;;;;4880439;29;20078;-68
2021/01/04 08:38:12;;;;;;;10.23;2.05;;;10.30;99.90;;;;;;4881000;29;20398;-69
2021/01/04 08:41:10;;;;;;;11.43;2.55;;;10.20;99.90;;;;;;4882561;29;20033;-68
2021/01/04 08:43:48;;;;;;;11.50;2.28;;;10.20;99.90;;;;;;4896811;29;20028;-69
2021/01/04 08:46:24;;;;;;;11.25;3.15;;;10.20;99.90;;;;;;4903231;29;20147;-67
2021/01/04 08:49:00;;;;;;;10.80;3.20;;;10.10;99.90;;;;;;4899670;29;20052;-67
2021/01/04 08:51:41;;;;;;;12.35;4.47;;;10.10;99.90;;;;;;4899730;29;20031;-68
2021/01/04 08:54:11;;;;;;;11.32;2.47;;;10.10;99.90;;;;;;4957416;28;20062;-69
2021/01/04 08:56:42;;;;;;;13.43;4.30;;;10.10;99.90;;;;;;5020288;28;20470;-68
2021/01/04 08:59:20;;;;;;;12.30;2.60;;;10.10;99.90;;;;;;5034139;28;20046;-68
2021/01/04 09:01:59;;;;;;;9.70;2.90;;;10.00;99.90;;;;;;5034848;28;20030;-69
2021/01/04 09:04:32;;;;;;;9.70;2.88;;;10.00;99.90;;;;;;5033710;28;20029;-68
2021/01/04 09:07:21;;;;;;;15.05;4.25;;;10.00;99.90;;;;;;5033646;28;20033;-68
2021/01/04 09:10:12;;;;;;;18.70;4.35;;;10.00;99.90;;;;;;5048168;28;20029;-68
2021/01/04 09:12:50;;;;;;;13.85;3.88;;;10.00;99.90;;;;;;5057428;28;20504;-68
2021/01/04 09:15:19;;;;;;;11.73;3.42;;;9.90;99.90;;;;;;5059503;28;20051;-68
2021/01/04 09:18:00;;;;;;;13.65;3.88;;;9.90;99.90;;;;;;5053527;28;20037;-68
2021/01/04 09:20:38;;;;;;;18.83;5.68;;;9.80;99.90;;;;;;5055308;28;20041;-68
2021/01/04 09:23:28;;;;;;;16.13;4.38;;;9.80;99.90;;;;;;5060370;28;20033;-68
2021/01/04 09:26:04;;;;;;;9.65;3.00;;;9.90;99.90;;;;;;5054596;28;20043;-68
2021/01/04 09:28:46;;;;;;;9.93;3.00;;;9.90;99.90;;;;;;5073489;28;20035;-68
2021/01/04 09:31:16;;;;;;;15.98;2.65;;;9.90;99.90;;;;;;5063562;28;20059;-70
2021/01/04 09:33:48;;;;;;;13.93;3.38;;;9.90;99.90;;;;;;5064453;28;20029;-68
2021/01/04 09:36:20;;;;;;;11.70;3.25;;;9.90;99.90;;;;;;5052135;28;20045;-68
2021/01/04 09:39:03;;;;;;;18.40;4.47;;;9.90;99.90;;;;;;5053840;28;20041;-67
2021/01/04 09:41:30;;;;;;;13.35;2.75;;;10.00;99.90;;;;;;5057016;28;20375;-68
2021/01/04 09:44:06;;;;;;;13.90;2.83;;;10.00;99.90;;;;;;5073258;28;20037;-67
2021/01/04 09:46:43;;;;;;;10.18;2.10;;;10.10;99.90;;;;;;5071418;28;20021;-67
2021/01/04 09:49:22;;;;;;;10.68;2.40;;;10.30;99.90;;;;;;5073164;28;20029;-67
2021/01/04 09:52:03;;;;;;;9.00;3.80;;;10.40;99.90;;;;;;5067674;28;20013;-68
2021/01/04 09:54:56;;;;;;;8.95;2.58;;;10.40;99.90;;;;;;5053916;28;20040;-67
2021/01/04 09:57:24;;;;;;;12.95;3.40;;;10.40;99.90;;;;;;5056354;28;20060;-67
2021/01/04 09:59:53;;;;;;;12.52;3.28;;;10.50;99.90;;;;;;5052879;28;20025;-67
2021/01/04 10:02:25;;;;;;;17.95;3.53;;;10.60;99.90;;;;;;5057944;28;20025;-69
2021/01/04 10:04:53;;;;;;;11.57;3.53;;;10.70;99.90;;;;;;5072813;28;20049;-68
2021/01/04 10:07:29;;;;;;;9.45;2.40;;;10.60;99.90;;;;;;5066458;28;20017;-69
2021/01/04 10:09:57;;;;;;;8.85;2.72;;;10.60;99.90;;;;;;5052383;28;20033;-68
2021/01/04 10:12:27;;;;;;;7.38;2.55;;;10.70;99.90;;;;;;5053106;28;20024;-67
2021/01/04 10:14:58;;;;;;;12.35;3.15;;;10.70;99.90;;;;;;5052730;28;20363;-67
2021/01/04 10:17:41;;;;;;;14.50;3.85;;;10.70;99.90;;;;;;5053762;28;20444;-68
2021/01/04 10:20:37;;;;;;;10.50;2.95;;;10.70;99.90;;;;;;5052121;28;20037;-67
2021/01/04 10:23:06;;;;;;;8.27;3.85;;;10.70;99.90;;;;;;5010593;28;20125;-68
2021/01/04 10:25:49;;;;;;;10.82;3.65;;;10.70;99.90;;;;;;4993380;28;20053;-68
2021/01/04 10:28:17;;;;;;;7.68;3.45;;;10.70;99.90;;;;;;5010815;28;20030;-68
2021/01/04 10:30:45;;;;;;;8.50;3.10;;;10.70;99.90;;;;;;5009946;28;20479;-68
2021/01/04 10:33:34;;;;;;;15.32;5.05;;;10.60;99.90;;;;;;5019513;28;20041;-68
2021/01/04 10:36:22;;;;;;;10.95;5.25;;;10.60;99.90;;;;;;5029908;28;20040;-68
2021/01/04 10:39:13;;;;;;;11.00;4.35;;;10.60;99.90;;;;;;5016199;28;20050;-67
2021/01/04 10:41:40;;;;;;;15.88;4.57;;;10.50;99.90;;;;;;5010181;28;20045;-68
2021/01/04 10:44:24;;;;;;;12.05;4.93;;;10.50;99.90;;;;;;5025549;28;20381;-69
2021/01/04 10:47:03;;;;;;;13.23;5.53;;;10.50;99.90;;;;;;5029968;28;20038;-68
2021/01/04 10:49:33;;;;;;;10.80;4.03;;;10.50;99.90;;;;;;5028149;28;20037;-68
2021/01/04 10:52:01;;;;;;;13.93;4.47;;;10.50;99.90;;;;;;5029520;28;20105;-69
2021/01/04 10:54:54;;;;;;;10.48;3.55;;;10.60;99.90;;;;;;5029319;28;20419;-69
2021/01/04 10:57:44;;;;;;;15.23;4.70;;;10.50;99.90;;;;;;5027592;28;20399;-69
2021/01/04 11:00:21;;;;;;;11.93;3.53;;;10.50;99.90;;;;;;5053069;28;20032;-68
2021/01/04 11:02:51;;;;;;;9.50;4.50;;;10.50;99.90;;;;;;5068971;28;20043;-68
2021/01/04 11:05:32;;;;;;;15.25;4.47;;;10.50;99.90;;;;;;5051768;28;20477;-70
2021/01/04 11:08:14;;;;;;;6.07;3.08;;;10.50;99.90;;;;;;5052654;28;20040;-69
2021/01/04 11:10:49;;;;;;;;;;;10.50;99.90;;;;;;5052347;28;20032;-69
2021/01/04 11:13:25;;;;;;;9.20;4.05;;;10.50;99.90;;;;;;5051551;28;19908;-69
2021/01/04 11:16:06;;;;;;;16.67;3.90;;;10.50;99.90;;;;;;5051515;28;20025;-68
2021/01/04 11:18:33;;;;;;;6.85;2.88;;;10.50;99.90;;;;;;5060016;28;20040;-68
2021/01/04 11:21:00;;;;;;;10.35;3.10;;;10.60;99.90;;;;;;5071258;28;20036;-69
2021/01/04 11:23:27;;;;;;;10.00;3.47;;;10.60;99.90;;;;;;5069739;28;20040;-69
2021/01/04 11:25:54;;;;;;;10.15;3.55;;;10.60;99.90;;;;;;5071578;28;20025;-68
2021/01/04 11:28:20;;;;;;;8.80;3.20;;;10.60;99.90;;;;;;5064703;28;20033;-69
2021/01/04 11:30:47;;;;;;;10.80;3.45;;;10.50;99.90;;;;;;5051142;28;20025;-68
2021/01/04 11:33:15;;;;;;;11.57;4.07;;;10.50;99.90;;;;;;5052986;28;20036;-67
2021/01/04 11:35:42;;;;;;;12.98;3.28;;;10.40;99.90;;;;;;5051487;28;20025;-68
2021/01/04 11:38:09;;;;;;;13.05;2.90;;;10.40;99.90;;;;;;5053667;28;20432;-68
2021/01/04 11:40:36;;;;;;;6.45;2.85;;;10.40;99.90;;;;;;5071587;28;20027;-68
2021/01/04 11:43:03;;;;;;;6.82;2.85;;;10.50;99.90;;;;;;5069624;28;20384;-69
2021/01/04 11:45:30;;;;;;;12.57;2.83;;;10.50;99.90;;;;;;5071307;28;20028;-69
2021/01/04 11:47:58;;;;;;;8.48;2.33;;;10.50;99.90;;;;;;5068882;28;20501;-69
2021/01/04 11:50:26;;;;;;;7.43;2.60;;;10.60;99.90;;;;;;5073029;28;20048;-68
2021/01/04 11:52:56;;;;;;;10.60;3.13;;;10.60;99.90;;;;;;5069365;28;20025;-68
2021/01/04 11:55:23;;;;;;;15.13;3.40;;;10.60;99.90;;;;;;5052438;28;20037;-68
2021/01/04 11:57:50;;;;;;;6.97;2.95;;;10.70;99.90;;;;;;5051384;28;20048;-68
2021/01/04 12:00:19;;;;;;;7.38;1.88;;;10.70;99.90;;;;;;5071048;28;20032;-68
2021/01/04 12:02:46;;;;;;;6.68;2.47;;;10.70;99.90;;;;;;5070217;28;20381;-68
2021/01/04 12:05:16;;;;;;;9.20;3.20;;;10.80;99.90;;;;;;5070250;28;20036;-70
2021/01/04 12:07:44;;;;;;;4.07;2.25;;;10.80;99.90;;;;;;5067719;28;20048;-69
2021/01/04 12:10:12;;;;;;;8.48;2.60;;;10.80;99.90;;;;;;5070268;28;20044;-70
2021/01/04 12:12:39;;;;;;;6.63;1.92;;;10.70;99.90;;;;;;5071205;28;20032;-69
2021/01/04 12:15:07;;;;;;;10.80;2.83;;;10.70;99.90;;;;;;5069319;28;20051;-68
2021/01/04 12:17:34;;;;;;;8.68;2.38;;;10.80;99.90;;;;;;5070685;28;20034;-68
2021/01/04 12:20:01;;;;;;;9.50;2.55;;;10.80;99.90;;;;;;5053501;28;20036;-68
2021/01/04 12:22:28;;;;;;;6.85;1.58;;;10.80;99.90;;;;;;5050741;28;20021;-70
2021/01/04 12:24:55;;;;;;;8.48;1.80;;;10.80;99.90;;;;;;5050596;28;20037;-68
2021/01/04 12:27:22;;;;;;;6.55;1.33;;;10.80;99.90;;;;;;5050917;28;20379;-68
2021/01/04 12:29:50;;;;;;;7.15;1.52;;;10.90;99.90;;;;;;5064835;28;20396;-69
2021/01/04 12:32:18;;;;;;;6.38;1.60;;;10.90;99.90;;;;;;5074197;28;20044;-69
2021/01/04 12:34:46;;;;;;;4.70;1.80;;;10.90;99.90;;;;;;5059526;28;20057;-68
2021/01/04 12:37:13;;;;;;;3.97;1.20;;;10.90;99.90;;;;;;5053807;28;20037;-68
2021/01/04 12:39:40;;;;;;;3.92;1.75;;;10.90;99.90;;;;;;5065335;28;20055;-68
2021/01/04 12:42:07;;;;;;;9.20;1.67;;;10.80;99.90;;;;;;5074366;28;20024;-68
2021/01/04 12:44:34;;;;;;;4.55;1.77;;;10.90;99.90;;;;;;5072888;28;20032;-68
2021/01/04 12:47:04;;;;;;;4.25;1.40;;;10.80;99.90;;;;;;5074390;28;20016;-69
2021/01/04 12:49:31;;;;;;;5.25;1.58;;;10.80;99.90;;;;;;5065142;28;20040;-69
2021/01/04 12:51:59;;;;;;;8.38;1.20;;;10.80;99.90;;;;;;5053835;28;20029;-68
2021/01/04 12:54:30;;;;;;;6.22;1.65;;;10.90;99.90;;;;;;5056480;28;20060;-69
2021/01/04 12:57:02;;;;;;;8.40;1.48;;;10.90;99.90;;;;;;5054364;28;20021;-69
2021/01/04 12:59:29;;;;;;;10.18;1.50;;;10.80;99.90;;;;;;5066200;28;20055;-69
2021/01/04 13:01:57;;;;;;;4.93;1.75;;;10.90;99.90;;;;;;5074151;28;20025;-68
2021/01/04 13:04:25;;;;;;;7.70;1.33;;;11.00;99.90;;;;;;5060869;28;20041;-67
2021/01/04 13:06:54;;;;;;;8.82;1.40;;;11.00;99.90;;;;;;5054521;28;20036;-68
2021/01/04 13:09:21;;;;;;;8.77;2.33;;;11.00;99.90;;;;;;5053981;28;20056;-68
2021/01/04 13:11:55;;;;;;;5.25;1.20;;;11.00;99.90;;;;;;5053930;28;20028;-67
2021/01/04 13:14:23;;;;;;;7.43;1.67;;;11.00;99.90;;;;;;5064510;28;20044;-69
2021/01/04 13:16:50;;;;;;;5.93;1.55;;;11.00;99.90;;;;;;5072336;28;20035;-68
2021/01/04 13:19:18;;;;;;;3.80;1.20;;;11.00;99.90;;;;;;5075444;28;20055;-69
2021/01/04 13:21:45;;;;;;;6.22;1.05;;;11.00;99.90;;;;;;5078900;28;20024;-69
2021/01/04 13:24:15;;;;;;;3.85;1.00;;;11.10;99.90;;;;;;5065158;28;20437;-69
2021/01/04 13:26:49;;;;;;;4.35;1.10;;;11.10;99.90;;;;;;5054133;28;20044;-69
2021/01/04 13:29:20;;;;;;;2.83;1.02;;;11.10;99.90;;;;;;5053429;28;20044;-69
2021/01/04 13:31:47;;;;;;;5.03;1.48;;;11.10;99.90;;;;;;5060733;28;20642;-69
2021/01/04 13:34:14;;;;;;;5.60;1.30;;;11.20;99.90;;;;;;5067700;28;20040;-69
2021/01/04 13:36:48;;;;;;;2.85;1.27;;;11.20;99.90;;;;;;5054843;28;20576;-68